sensor_id;sensor_type;location;lat;lon;timestamp;P1;durP1;ratioP1;P2;durP2;ratioP2
2848;SDS011;59355;52.416;13.412;2023-02-21T00:02:10;10.27;;;9.27;;
2848;SDS011;59355;52.416;13.412;2023-02-21T00:04:55;12.80;;;11.50;;
2848;SDS011;59355;52.416;13.412;2023-02-21T00:07:39;10.80;;;9.70;;
2848;SDS011;59355;52.416;13.412;2023-02-21T00:10:23;10.53;;;9.40;;
2848;SDS011;59355;52.416;13.412;2023-02-21T00:13:07;12.70;;;10.97;;
2848;SDS011;59355;52.416;13.412;2023-02-21T00:15:51;10.57;;;9.47;;
2848;SDS011;59355;52.416;13.412;2023-02-21T00:18:35;12.37;;;11.17;;
2848;SDS011;59355;52.416;13.412;2023-02-21T00:21:20;11.47;;;9.33;;
2848;SDS011;59355;52.416;13.412;2023-02-21T00:24:04;11.80;;;10.60;;
2848;SDS011;59355;52.416;13.412;2023-02-21T00:26:49;11.80;;;10.27;;
2848;SDS011;59355;52.416;13.412;2023-02-21T00:29:33;11.33;;;9.90;;
2848;SDS011;59355;52.416;13.412;2023-02-21T00:32:16;11.63;;;10.27;;
2848;SDS011;59355;52.416;13.412;2023-02-21T00:35:00;11.23;;;10.10;;
2848;SDS011;59355;52.416;13.412;2023-02-21T00:37:44;12.70;;;11.00;;
2848;SDS011;59355;52.416;13.412;2023-02-21T00:40:32;12.30;;;11.00;;
2848;SDS011;59355;52.416;13.412;2023-02-21T00:43:16;15.90;;;13.13;;
2848;SDS011;59355;52.416;13.412;2023-02-21T00:45:59;13.30;;;11.30;;
2848;SDS011;59355;52.416;13.412;2023-02-21T00:48:43;16.00;;;12.20;;
2848;SDS011;59355;52.416;13.412;2023-02-21T00:51:27;15.57;;;12.63;;
2848;SDS011;59355;52.416;13.412;2023-02-21T00:54:11;14.40;;;12.20;;
2848;SDS011;59355;52.416;13.412;2023-02-21T00:56:54;15.53;;;12.53;;
2848;SDS011;59355;52.416;13.412;2023-02-21T00:59:38;15.70;;;13.23;;
2848;SDS011;59355;52.416;13.412;2023-02-21T01:02:23;16.10;;;13.23;;
2848;SDS011;59355;52.416;13.412;2023-02-21T01:05:07;17.00;;;13.20;;
2848;SDS011;59355;52.416;13.412;2023-02-21T01:07:50;15.80;;;12.30;;
2848;SDS011;59355;52.416;13.412;2023-02-21T01:10:34;16.60;;;14.00;;
2848;SDS011;59355;52.416;13.412;2023-02-21T01:13:18;13.93;;;12.43;;
2848;SDS011;59355;52.416;13.412;2023-02-21T01:16:02;15.90;;;12.80;;
2848;SDS011;59355;52.416;13.412;2023-02-21T01:18:45;16.83;;;13.90;;
2848;SDS011;59355;52.416;13.412;2023-02-21T01:21:29;14.70;;;12.20;;
2848;SDS011;59355;52.416;13.412;2023-02-21T01:24:14;17.50;;;13.40;;
2848;SDS011;59355;52.416;13.412;2023-02-21T01:26:58;15.60;;;13.17;;
2848;SDS011;59355;52.416;13.412;2023-02-21T01:29:43;19.93;;;14.67;;
2848;SDS011;59355;52.416;13.412;2023-02-21T01:32:27;15.27;;;12.90;;
2848;SDS011;59355;52.416;13.412;2023-02-21T01:35:11;18.50;;;14.20;;
2848;SDS011;59355;52.416;13.412;2023-02-21T01:37:55;14.93;;;12.80;;
2848;SDS011;59355;52.416;13.412;2023-02-21T01:40:39;16.93;;;13.33;;
2848;SDS011;59355;52.416;13.412;2023-02-21T01:43:24;15.37;;;13.77;;
2848;SDS011;59355;52.416;13.412;2023-02-21T01:46:09;15.07;;;13.33;;
2848;SDS011;59355;52.416;13.412;2023-02-21T01:48:54;15.93;;;12.60;;
2848;SDS011;59355;52.416;13.412;2023-02-21T01:51:40;13.97;;;12.27;;
2848;SDS011;59355;52.416;13.412;2023-02-21T01:54:25;14.20;;;12.67;;
2848;SDS011;59355;52.416;13.412;2023-02-21T01:57:10;14.83;;;13.20;;
2848;SDS011;59355;52.416;13.412;2023-02-21T01:59:55;16.43;;;13.13;;
2848;SDS011;59355;52.416;13.412;2023-02-21T02:02:47;13.47;;;11.77;;
2848;SDS011;59355;52.416;13.412;2023-02-21T02:05:36;13.23;;;11.83;;
2848;SDS011;59355;52.416;13.412;2023-02-21T02:08:22;14.67;;;12.40;;
2848;SDS011;59355;52.416;13.412;2023-02-21T02:11:20;14.73;;;12.90;;
2848;SDS011;59355;52.416;13.412;2023-02-21T02:14:29;15.27;;;11.03;;
2848;SDS011;59355;52.416;13.412;2023-02-21T02:17:05;13.87;;;11.60;;
2848;SDS011;59355;52.416;13.412;2023-02-21T02:19:48;14.57;;;12.53;;
2848;SDS011;59355;52.416;13.412;2023-02-21T02:25:20;13.97;;;12.50;;
2848;SDS011;59355;52.416;13.412;2023-02-21T02:31:00;12.40;;;11.10;;
2848;SDS011;59355;52.416;13.412;2023-02-21T02:33:46;12.87;;;11.47;;
2848;SDS011;59355;52.416;13.412;2023-02-21T02:36:24;12.00;;;10.70;;
2848;SDS011;59355;52.416;13.412;2023-02-21T02:38:59;13.83;;;11.83;;
2848;SDS011;59355;52.416;13.412;2023-02-21T02:41:46;12.13;;;10.90;;
2848;SDS011;59355;52.416;13.412;2023-02-21T02:47:02;13.30;;;11.77;;
2848;SDS011;59355;52.416;13.412;2023-02-21T02:49:29;13.60;;;11.77;;
2848;SDS011;59355;52.416;13.412;2023-02-21T02:51:55;13.13;;;11.83;;
2848;SDS011;59355;52.416;13.412;2023-02-21T02:54:28;14.50;;;13.00;;
2848;SDS011;59355;52.416;13.412;2023-02-21T02:56:53;12.63;;;10.97;;
2848;SDS011;59355;52.416;13.412;2023-02-21T02:59:22;15.20;;;12.47;;
2848;SDS011;59355;52.416;13.412;2023-02-21T03:02:06;13.40;;;12.07;;
2848;SDS011;59355;52.416;13.412;2023-02-21T03:07:37;12.37;;;10.10;;
2848;SDS011;59355;52.416;13.412;2023-02-21T03:13:16;12.27;;;10.93;;
2848;SDS011;59355;52.416;13.412;2023-02-21T03:15:54;11.90;;;10.70;;
2848;SDS011;59355;52.416;13.412;2023-02-21T03:18:27;12.10;;;10.90;;
2848;SDS011;59355;52.416;13.412;2023-02-21T03:20:56;12.93;;;10.90;;
2848;SDS011;59355;52.416;13.412;2023-02-21T03:23:23;10.80;;;9.40;;
2848;SDS011;59355;52.416;13.412;2023-02-21T03:25:50;11.30;;;9.50;;
2848;SDS011;59355;52.416;13.412;2023-02-21T03:28:16;14.50;;;11.17;;
2848;SDS011;59355;52.416;13.412;2023-02-21T03:30:43;12.97;;;10.60;;
2848;SDS011;59355;52.416;13.412;2023-02-21T03:33:08;10.83;;;9.63;;
2848;SDS011;59355;52.416;13.412;2023-02-21T03:35:34;12.73;;;10.83;;
2848;SDS011;59355;52.416;13.412;2023-02-21T03:37:59;11.63;;;10.37;;
2848;SDS011;59355;52.416;13.412;2023-02-21T03:40:26;14.50;;;12.30;;
2848;SDS011;59355;52.416;13.412;2023-02-21T03:42:53;12.83;;;11.17;;
2848;SDS011;59355;52.416;13.412;2023-02-21T03:45:19;12.60;;;10.50;;
2848;SDS011;59355;52.416;13.412;2023-02-21T03:47:44;11.63;;;10.43;;
2848;SDS011;59355;52.416;13.412;2023-02-21T03:50:09;11.57;;;10.37;;
2848;SDS011;59355;52.416;13.412;2023-02-21T03:52:35;13.70;;;10.77;;
2848;SDS011;59355;52.416;13.412;2023-02-21T03:55:00;13.93;;;11.70;;
2848;SDS011;59355;52.416;13.412;2023-02-21T03:57:25;12.80;;;10.90;;
2848;SDS011;59355;52.416;13.412;2023-02-21T03:59:51;15.67;;;13.53;;
2848;SDS011;59355;52.416;13.412;2023-02-21T04:02:16;13.00;;;11.03;;
2848;SDS011;59355;52.416;13.412;2023-02-21T04:04:43;11.43;;;10.10;;
2848;SDS011;59355;52.416;13.412;2023-02-21T04:07:08;13.50;;;12.10;;
2848;SDS011;59355;52.416;13.412;2023-02-21T04:09:34;11.83;;;10.50;;
2848;SDS011;59355;52.416;13.412;2023-02-21T04:11:59;12.60;;;10.27;;
2848;SDS011;59355;52.416;13.412;2023-02-21T04:14:24;12.60;;;10.17;;
2848;SDS011;59355;52.416;13.412;2023-02-21T04:16:50;14.10;;;11.90;;
2848;SDS011;59355;52.416;13.412;2023-02-21T04:19:15;12.10;;;10.80;;
2848;SDS011;59355;52.416;13.412;2023-02-21T04:21:40;13.30;;;11.60;;
2848;SDS011;59355;52.416;13.412;2023-02-21T04:24:06;12.53;;;11.23;;
2848;SDS011;59355;52.416;13.412;2023-02-21T04:26:31;14.10;;;11.60;;
2848;SDS011;59355;52.416;13.412;2023-02-21T04:28:58;13.37;;;11.97;;
2848;SDS011;59355;52.416;13.412;2023-02-21T04:31:24;11.60;;;10.40;;
2848;SDS011;59355;52.416;13.412;2023-02-21T04:33:49;12.90;;;11.50;;
2848;SDS011;59355;52.416;13.412;2023-02-21T04:36:15;13.03;;;11.53;;
2848;SDS011;59355;52.416;13.412;2023-02-21T04:38:40;14.90;;;13.30;;
2848;SDS011;59355;52.416;13.412;2023-02-21T04:41:05;14.47;;;12.70;;
2848;SDS011;59355;52.416;13.412;2023-02-21T04:43:31;14.93;;;12.57;;
2848;SDS011;59355;52.416;13.412;2023-02-21T04:45:56;13.00;;;11.60;;
2848;SDS011;59355;52.416;13.412;2023-02-21T04:48:22;15.87;;;14.17;;
2848;SDS011;59355;52.416;13.412;2023-02-21T04:50:47;16.30;;;14.07;;
2848;SDS011;59355;52.416;13.412;2023-02-21T04:53:12;16.50;;;14.00;;
2848;SDS011;59355;52.416;13.412;2023-02-21T04:55:38;15.07;;;13.10;;
2848;SDS011;59355;52.416;13.412;2023-02-21T04:58:03;16.10;;;14.40;;
2848;SDS011;59355;52.416;13.412;2023-02-21T05:00:29;16.20;;;14.50;;
2848;SDS011;59355;52.416;13.412;2023-02-21T05:02:54;17.83;;;14.07;;
2848;SDS011;59355;52.416;13.412;2023-02-21T05:05:20;17.80;;;14.20;;
2848;SDS011;59355;52.416;13.412;2023-02-21T05:07:45;19.53;;;14.60;;
2848;SDS011;59355;52.416;13.412;2023-02-21T05:10:10;21.10;;;15.37;;
2848;SDS011;59355;52.416;13.412;2023-02-21T05:12:36;18.90;;;14.30;;
2848;SDS011;59355;52.416;13.412;2023-02-21T05:15:03;20.83;;;16.17;;
2848;SDS011;59355;52.416;13.412;2023-02-21T05:17:29;18.23;;;14.73;;
2848;SDS011;59355;52.416;13.412;2023-02-21T05:19:55;19.13;;;14.80;;
2848;SDS011;59355;52.416;13.412;2023-02-21T05:22:20;21.23;;;15.30;;
2848;SDS011;59355;52.416;13.412;2023-02-21T05:24:46;19.67;;;15.57;;
2848;SDS011;59355;52.416;13.412;2023-02-21T05:27:13;20.97;;;15.80;;
2848;SDS011;59355;52.416;13.412;2023-02-21T05:29:39;18.10;;;13.73;;
2848;SDS011;59355;52.416;13.412;2023-02-21T05:32:10;17.40;;;13.27;;
2848;SDS011;59355;52.416;13.412;2023-02-21T05:34:35;19.17;;;13.03;;
2848;SDS011;59355;52.416;13.412;2023-02-21T05:37:01;17.53;;;13.50;;
2848;SDS011;59355;52.416;13.412;2023-02-21T05:39:26;19.67;;;15.67;;
2848;SDS011;59355;52.416;13.412;2023-02-21T05:41:51;15.90;;;14.07;;
2848;SDS011;59355;52.416;13.412;2023-02-21T05:44:17;17.17;;;13.80;;
2848;SDS011;59355;52.416;13.412;2023-02-21T05:46:42;16.60;;;13.97;;
2848;SDS011;59355;52.416;13.412;2023-02-21T05:49:09;17.90;;;14.10;;
2848;SDS011;59355;52.416;13.412;2023-02-21T05:51:36;20.73;;;14.10;;
2848;SDS011;59355;52.416;13.412;2023-02-21T05:54:02;18.53;;;14.27;;
2848;SDS011;59355;52.416;13.412;2023-02-21T05:56:28;18.87;;;14.73;;
2848;SDS011;59355;52.416;13.412;2023-02-21T05:58:54;17.77;;;14.40;;
2848;SDS011;59355;52.416;13.412;2023-02-21T06:01:19;20.03;;;14.60;;
2848;SDS011;59355;52.416;13.412;2023-02-21T06:03:44;21.53;;;15.80;;
2848;SDS011;59355;52.416;13.412;2023-02-21T06:06:10;20.77;;;15.53;;
2848;SDS011;59355;52.416;13.412;2023-02-21T06:08:42;20.90;;;14.97;;
2848;SDS011;59355;52.416;13.412;2023-02-21T06:11:08;24.33;;;15.70;;
2848;SDS011;59355;52.416;13.412;2023-02-21T06:13:34;21.47;;;16.03;;
2848;SDS011;59355;52.416;13.412;2023-02-21T06:15:59;27.17;;;18.70;;
2848;SDS011;59355;52.416;13.412;2023-02-21T06:18:24;22.90;;;17.00;;
2848;SDS011;59355;52.416;13.412;2023-02-21T06:20:50;23.20;;;16.80;;
2848;SDS011;59355;52.416;13.412;2023-02-21T06:23:15;23.73;;;16.13;;
2848;SDS011;59355;52.416;13.412;2023-02-21T06:25:40;23.10;;;15.77;;
2848;SDS011;59355;52.416;13.412;2023-02-21T06:28:06;22.80;;;15.53;;
2848;SDS011;59355;52.416;13.412;2023-02-21T06:30:32;24.70;;;16.60;;
2848;SDS011;59355;52.416;13.412;2023-02-21T06:32:57;27.30;;;17.13;;
2848;SDS011;59355;52.416;13.412;2023-02-21T06:35:22;26.30;;;17.00;;
2848;SDS011;59355;52.416;13.412;2023-02-21T06:37:48;22.77;;;15.80;;
2848;SDS011;59355;52.416;13.412;2023-02-21T06:40:13;26.53;;;18.00;;
2848;SDS011;59355;52.416;13.412;2023-02-21T06:42:38;23.00;;;15.70;;
2848;SDS011;59355;52.416;13.412;2023-02-21T06:45:04;23.73;;;17.13;;
2848;SDS011;59355;52.416;13.412;2023-02-21T06:47:29;22.33;;;15.90;;
2848;SDS011;59355;52.416;13.412;2023-02-21T06:49:55;22.10;;;15.27;;
2848;SDS011;59355;52.416;13.412;2023-02-21T06:52:20;26.13;;;16.80;;
2848;SDS011;59355;52.416;13.412;2023-02-21T06:54:48;23.17;;;16.70;;
2848;SDS011;59355;52.416;13.412;2023-02-21T06:57:14;25.50;;;16.57;;
2848;SDS011;59355;52.416;13.412;2023-02-21T06:59:39;25.27;;;17.30;;
2848;SDS011;59355;52.416;13.412;2023-02-21T07:02:05;23.30;;;15.27;;
2848;SDS011;59355;52.416;13.412;2023-02-21T07:04:31;23.70;;;15.90;;
2848;SDS011;59355;52.416;13.412;2023-02-21T07:06:56;25.63;;;16.67;;
2848;SDS011;59355;52.416;13.412;2023-02-21T07:09:21;23.13;;;14.60;;
2848;SDS011;59355;52.416;13.412;2023-02-21T07:11:47;22.03;;;15.63;;
2848;SDS011;59355;52.416;13.412;2023-02-21T07:14:12;24.67;;;16.77;;
2848;SDS011;59355;52.416;13.412;2023-02-21T07:16:38;26.10;;;16.77;;
2848;SDS011;59355;52.416;13.412;2023-02-21T07:19:03;21.90;;;15.00;;
2848;SDS011;59355;52.416;13.412;2023-02-21T07:21:29;20.30;;;13.37;;
2848;SDS011;59355;52.416;13.412;2023-02-21T07:23:55;25.10;;;16.27;;
2848;SDS011;59355;52.416;13.412;2023-02-21T07:26:20;18.47;;;13.07;;
2848;SDS011;59355;52.416;13.412;2023-02-21T07:28:46;18.23;;;12.50;;
2848;SDS011;59355;52.416;13.412;2023-02-21T07:31:12;18.20;;;13.30;;
2848;SDS011;59355;52.416;13.412;2023-02-21T07:33:37;19.17;;;12.93;;
2848;SDS011;59355;52.416;13.412;2023-02-21T07:36:02;20.63;;;13.23;;
2848;SDS011;59355;52.416;13.412;2023-02-21T07:38:29;18.70;;;12.00;;
2848;SDS011;59355;52.416;13.412;2023-02-21T07:40:55;18.20;;;12.57;;
2848;SDS011;59355;52.416;13.412;2023-02-21T07:43:22;17.90;;;11.20;;
2848;SDS011;59355;52.416;13.412;2023-02-21T07:45:48;15.40;;;11.27;;
2848;SDS011;59355;52.416;13.412;2023-02-21T07:48:14;21.10;;;13.00;;
2848;SDS011;59355;52.416;13.412;2023-02-21T07:50:40;16.27;;;12.00;;
2848;SDS011;59355;52.416;13.412;2023-02-21T07:53:09;15.37;;;11.17;;
2848;SDS011;59355;52.416;13.412;2023-02-21T07:55:35;14.70;;;10.17;;
2848;SDS011;59355;52.416;13.412;2023-02-21T07:58:00;19.40;;;10.20;;
2848;SDS011;59355;52.416;13.412;2023-02-21T08:00:25;13.67;;;10.43;;
2848;SDS011;59355;52.416;13.412;2023-02-21T08:02:51;10.10;;;8.27;;
2848;SDS011;59355;52.416;13.412;2023-02-21T08:05:17;10.70;;;7.90;;
2848;SDS011;59355;52.416;13.412;2023-02-21T08:07:43;11.83;;;8.47;;
2848;SDS011;59355;52.416;13.412;2023-02-21T08:10:09;9.30;;;7.57;;
2848;SDS011;59355;52.416;13.412;2023-02-21T08:12:35;8.00;;;5.87;;
2848;SDS011;59355;52.416;13.412;2023-02-21T08:15:00;6.50;;;4.80;;
2848;SDS011;59355;52.416;13.412;2023-02-21T08:17:26;5.27;;;4.63;;
2848;SDS011;59355;52.416;13.412;2023-02-21T08:19:51;5.30;;;4.57;;
2848;SDS011;59355;52.416;13.412;2023-02-21T08:22:16;3.40;;;3.00;;
2848;SDS011;59355;52.416;13.412;2023-02-21T08:24:42;3.87;;;3.50;;
2848;SDS011;59355;52.416;13.412;2023-02-21T08:27:07;3.37;;;3.07;;
2848;SDS011;59355;52.416;13.412;2023-02-21T08:29:33;3.27;;;2.97;;
2848;SDS011;59355;52.416;13.412;2023-02-21T08:31:58;2.83;;;2.53;;
2848;SDS011;59355;52.416;13.412;2023-02-21T08:34:23;2.50;;;2.30;;
2848;SDS011;59355;52.416;13.412;2023-02-21T08:36:49;2.80;;;2.60;;
2848;SDS011;59355;52.416;13.412;2023-02-21T08:39:14;2.60;;;2.40;;
2848;SDS011;59355;52.416;13.412;2023-02-21T08:41:43;2.57;;;2.37;;
2848;SDS011;59355;52.416;13.412;2023-02-21T08:44:11;4.00;;;2.17;;
2848;SDS011;59355;52.416;13.412;2023-02-21T08:46:37;2.30;;;2.10;;
2848;SDS011;59355;52.416;13.412;2023-02-21T08:49:04;3.60;;;2.43;;
2848;SDS011;59355;52.416;13.412;2023-02-21T08:51:31;2.27;;;2.07;;
2848;SDS011;59355;52.416;13.412;2023-02-21T08:53:56;2.47;;;2.10;;
2848;SDS011;59355;52.416;13.412;2023-02-21T08:56:22;2.63;;;2.43;;
2848;SDS011;59355;52.416;13.412;2023-02-21T08:58:50;2.73;;;2.50;;
2848;SDS011;59355;52.416;13.412;2023-02-21T09:01:17;2.50;;;2.30;;
2848;SDS011;59355;52.416;13.412;2023-02-21T09:03:43;2.83;;;2.60;;
2848;SDS011;59355;52.416;13.412;2023-02-21T09:06:08;3.10;;;2.80;;
2848;SDS011;59355;52.416;13.412;2023-02-21T09:08:34;2.53;;;2.33;;
2848;SDS011;59355;52.416;13.412;2023-02-21T09:11:03;2.37;;;2.17;;
2848;SDS011;59355;52.416;13.412;2023-02-21T09:13:29;3.63;;;2.30;;
2848;SDS011;59355;52.416;13.412;2023-02-21T09:15:56;3.90;;;2.40;;
2848;SDS011;59355;52.416;13.412;2023-02-21T09:18:22;2.70;;;2.50;;
2848;SDS011;59355;52.416;13.412;2023-02-21T09:20:47;2.33;;;2.13;;
2848;SDS011;59355;52.416;13.412;2023-02-21T09:23:17;2.50;;;2.10;;
2848;SDS011;59355;52.416;13.412;2023-02-21T09:25:44;4.57;;;2.80;;
2848;SDS011;59355;52.416;13.412;2023-02-21T09:28:10;3.73;;;2.73;;
2848;SDS011;59355;52.416;13.412;2023-02-21T09:30:35;4.33;;;2.70;;
2848;SDS011;59355;52.416;13.412;2023-02-21T09:33:00;2.67;;;1.90;;
2848;SDS011;59355;52.416;13.412;2023-02-21T09:35:26;2.40;;;2.20;;
2848;SDS011;59355;52.416;13.412;2023-02-21T09:37:54;5.00;;;2.57;;
2848;SDS011;59355;52.416;13.412;2023-02-21T09:40:27;2.57;;;2.10;;
2848;SDS011;59355;52.416;13.412;2023-02-21T09:43:20;2.30;;;2.10;;
2848;SDS011;59355;52.416;13.412;2023-02-21T09:45:51;3.13;;;2.80;;
2848;SDS011;59355;52.416;13.412;2023-02-21T09:48:18;3.63;;;2.33;;
2848;SDS011;59355;52.416;13.412;2023-02-21T09:50:51;3.80;;;3.23;;
2848;SDS011;59355;52.416;13.412;2023-02-21T09:53:19;3.23;;;2.40;;
2848;SDS011;59355;52.416;13.412;2023-02-21T09:55:47;2.70;;;2.40;;
2848;SDS011;59355;52.416;13.412;2023-02-21T09:58:14;3.20;;;2.70;;
2848;SDS011;59355;52.416;13.412;2023-02-21T10:00:41;2.60;;;2.40;;
2848;SDS011;59355;52.416;13.412;2023-02-21T10:03:21;2.83;;;2.27;;
2848;SDS011;59355;52.416;13.412;2023-02-21T10:08:44;3.00;;;2.20;;
2848;SDS011;59355;52.416;13.412;2023-02-21T10:13:45;2.17;;;1.70;;
2848;SDS011;59355;52.416;13.412;2023-02-21T10:16:45;2.27;;;1.90;;
2848;SDS011;59355;52.416;13.412;2023-02-21T10:19:30;4.93;;;2.07;;
2848;SDS011;59355;52.416;13.412;2023-02-21T10:22:00;2.37;;;1.70;;
2848;SDS011;59355;52.416;13.412;2023-02-21T10:24:28;2.00;;;1.70;;
2848;SDS011;59355;52.416;13.412;2023-02-21T10:27:04;2.33;;;1.60;;
2848;SDS011;59355;52.416;13.412;2023-02-21T10:31:59;1.63;;;1.53;;
2848;SDS011;59355;52.416;13.412;2023-02-21T10:34:27;1.60;;;1.50;;
2848;SDS011;59355;52.416;13.412;2023-02-21T10:36:55;1.70;;;1.50;;
2848;SDS011;59355;52.416;13.412;2023-02-21T10:39:23;4.07;;;1.90;;
2848;SDS011;59355;52.416;13.412;2023-02-21T10:41:55;2.10;;;1.50;;
2848;SDS011;59355;52.416;13.412;2023-02-21T10:44:21;2.67;;;1.50;;
2848;SDS011;59355;52.416;13.412;2023-02-21T10:46:53;2.73;;;1.70;;
2848;SDS011;59355;52.416;13.412;2023-02-21T10:49:27;6.10;;;1.40;;
2848;SDS011;59355;52.416;13.412;2023-02-21T10:52:29;3.70;;;1.67;;
2848;SDS011;59355;52.416;13.412;2023-02-21T10:54:58;4.60;;;1.50;;
2848;SDS011;59355;52.416;13.412;2023-02-21T10:57:29;4.40;;;2.50;;
2848;SDS011;59355;52.416;13.412;2023-02-21T10:59:56;1.80;;;1.60;;
2848;SDS011;59355;52.416;13.412;2023-02-21T11:02:29;3.00;;;1.70;;
2848;SDS011;59355;52.416;13.412;2023-02-21T11:05:06;2.53;;;1.53;;
2848;SDS011;59355;52.416;13.412;2023-02-21T11:07:38;3.67;;;1.67;;
2848;SDS011;59355;52.416;13.412;2023-02-21T11:13:02;8.07;;;3.03;;
2848;SDS011;59355;52.416;13.412;2023-02-21T11:15:48;3.63;;;1.70;;
2848;SDS011;59355;52.416;13.412;2023-02-21T11:18:33;3.27;;;2.13;;
2848;SDS011;59355;52.416;13.412;2023-02-21T11:21:08;1.70;;;1.40;;
2848;SDS011;59355;52.416;13.412;2023-02-21T11:23:35;2.63;;;1.50;;
2848;SDS011;59355;52.416;13.412;2023-02-21T11:26:05;2.30;;;1.77;;
2848;SDS011;59355;52.416;13.412;2023-02-21T11:28:37;4.20;;;2.80;;
2848;SDS011;59355;52.416;13.412;2023-02-21T11:31:17;3.73;;;1.80;;
2848;SDS011;59355;52.416;13.412;2023-02-21T11:33:49;4.70;;;1.90;;
2848;SDS011;59355;52.416;13.412;2023-02-21T11:36:17;3.63;;;2.70;;
2848;SDS011;59355;52.416;13.412;2023-02-21T11:38:58;3.03;;;1.80;;
2848;SDS011;59355;52.416;13.412;2023-02-21T11:43:54;3.77;;;2.10;;
2848;SDS011;59355;52.416;13.412;2023-02-21T11:46:31;1.90;;;1.53;;
2848;SDS011;59355;52.416;13.412;2023-02-21T11:54:31;4.30;;;1.93;;
2848;SDS011;59355;52.416;13.412;2023-02-21T11:57:06;3.53;;;2.00;;
2848;SDS011;59355;52.416;13.412;2023-02-21T11:59:39;3.10;;;1.83;;
2848;SDS011;59355;52.416;13.412;2023-02-21T12:10:06;5.60;;;2.13;;
2848;SDS011;59355;52.416;13.412;2023-02-21T12:15:25;5.57;;;2.33;;
2848;SDS011;59355;52.416;13.412;2023-02-21T12:18:00;5.33;;;1.97;;
2848;SDS011;59355;52.416;13.412;2023-02-21T12:21:07;5.73;;;2.20;;
2848;SDS011;59355;52.416;13.412;2023-02-21T12:23:46;9.27;;;2.80;;
2848;SDS011;59355;52.416;13.412;2023-02-21T12:29:30;5.50;;;2.23;;
2848;SDS011;59355;52.416;13.412;2023-02-21T12:32:12;3.67;;;2.50;;
2848;SDS011;59355;52.416;13.412;2023-02-21T12:37:54;5.27;;;2.73;;
2848;SDS011;59355;52.416;13.412;2023-02-21T12:40:35;4.43;;;2.23;;
2848;SDS011;59355;52.416;13.412;2023-02-21T12:48:44;10.07;;;2.53;;
2848;SDS011;59355;52.416;13.412;2023-02-21T12:51:20;5.13;;;2.80;;
2848;SDS011;59355;52.416;13.412;2023-02-21T12:56:34;6.63;;;2.80;;
2848;SDS011;59355;52.416;13.412;2023-02-21T12:59:27;8.53;;;2.37;;
2848;SDS011;59355;52.416;13.412;2023-02-21T13:02:01;4.33;;;2.30;;
2848;SDS011;59355;52.416;13.412;2023-02-21T13:04:35;5.50;;;2.30;;
2848;SDS011;59355;52.416;13.412;2023-02-21T13:12:55;3.37;;;2.33;;
2848;SDS011;59355;52.416;13.412;2023-02-21T13:15:23;4.90;;;2.10;;
2848;SDS011;59355;52.416;13.412;2023-02-21T13:18:00;9.57;;;2.40;;
2848;SDS011;59355;52.416;13.412;2023-02-21T13:20:29;6.07;;;2.20;;
2848;SDS011;59355;52.416;13.412;2023-02-21T13:26:15;4.53;;;2.10;;
2848;SDS011;59355;52.416;13.412;2023-02-21T13:28:55;6.33;;;2.47;;
2848;SDS011;59355;52.416;13.412;2023-02-21T13:31:22;5.20;;;2.73;;
2848;SDS011;59355;52.416;13.412;2023-02-21T13:33:59;6.27;;;2.23;;
2848;SDS011;59355;52.416;13.412;2023-02-21T13:36:27;5.97;;;3.00;;
2848;SDS011;59355;52.416;13.412;2023-02-21T13:39:02;5.43;;;2.60;;
2848;SDS011;59355;52.416;13.412;2023-02-21T13:41:43;5.57;;;2.53;;
2848;SDS011;59355;52.416;13.412;2023-02-21T13:44:15;6.57;;;2.63;;
2848;SDS011;59355;52.416;13.412;2023-02-21T14:08:14;10.33;;;2.77;;
2848;SDS011;59355;52.416;13.412;2023-02-21T14:10:47;3.67;;;2.10;;
2848;SDS011;59355;52.416;13.412;2023-02-21T14:29:27;8.73;;;2.73;;
2848;SDS011;59355;52.416;13.412;2023-02-21T14:37:12;7.93;;;3.60;;
2848;SDS011;59355;52.416;13.412;2023-02-21T14:39:42;6.10;;;3.13;;
2848;SDS011;59355;52.416;13.412;2023-02-21T14:50:33;5.00;;;3.17;;
2848;SDS011;59355;52.416;13.412;2023-02-21T15:07:14;11.83;;;2.90;;
2848;SDS011;59355;52.416;13.412;2023-02-21T15:09:42;5.87;;;3.33;;
2848;SDS011;59355;52.416;13.412;2023-02-21T15:12:12;7.43;;;2.90;;
2848;SDS011;59355;52.416;13.412;2023-02-21T15:14:45;8.07;;;3.13;;
2848;SDS011;59355;52.416;13.412;2023-02-21T15:17:15;10.60;;;2.90;;
2848;SDS011;59355;52.416;13.412;2023-02-21T15:19:42;10.10;;;3.07;;
2848;SDS011;59355;52.416;13.412;2023-02-21T15:22:14;7.93;;;2.73;;
2848;SDS011;59355;52.416;13.412;2023-02-21T15:27:22;7.57;;;2.97;;
2848;SDS011;59355;52.416;13.412;2023-02-21T15:30:02;8.93;;;3.70;;
2848;SDS011;59355;52.416;13.412;2023-02-21T15:32:27;6.97;;;2.97;;
2848;SDS011;59355;52.416;13.412;2023-02-21T15:34:53;13.23;;;3.53;;
2848;SDS011;59355;52.416;13.412;2023-02-21T15:37:22;11.30;;;3.60;;
2848;SDS011;59355;52.416;13.412;2023-02-21T15:39:50;13.17;;;3.57;;
2848;SDS011;59355;52.416;13.412;2023-02-21T15:42:24;8.00;;;3.40;;
2848;SDS011;59355;52.416;13.412;2023-02-21T15:44:51;10.70;;;3.70;;
2848;SDS011;59355;52.416;13.412;2023-02-21T15:47:23;14.77;;;4.63;;
2848;SDS011;59355;52.416;13.412;2023-02-21T15:52:56;9.80;;;5.40;;
2848;SDS011;59355;52.416;13.412;2023-02-21T15:55:37;19.23;;;4.77;;
2848;SDS011;59355;52.416;13.412;2023-02-21T15:58:11;12.57;;;3.70;;
2848;SDS011;59355;52.416;13.412;2023-02-21T16:00:46;10.23;;;3.73;;
2848;SDS011;59355;52.416;13.412;2023-02-21T16:06:11;6.60;;;3.67;;
2848;SDS011;59355;52.416;13.412;2023-02-21T16:08:50;13.47;;;3.57;;
2848;SDS011;59355;52.416;13.412;2023-02-21T16:11:22;11.33;;;4.10;;
2848;SDS011;59355;52.416;13.412;2023-02-21T16:13:49;8.87;;;3.73;;
2848;SDS011;59355;52.416;13.412;2023-02-21T16:16:14;8.50;;;3.27;;
2848;SDS011;59355;52.416;13.412;2023-02-21T16:18:39;8.93;;;4.30;;
2848;SDS011;59355;52.416;13.412;2023-02-21T16:21:05;21.53;;;5.03;;
2848;SDS011;59355;52.416;13.412;2023-02-21T16:23:33;9.83;;;3.80;;
2848;SDS011;59355;52.416;13.412;2023-02-21T16:28:30;12.03;;;4.20;;
2848;SDS011;59355;52.416;13.412;2023-02-21T16:30:57;12.10;;;5.50;;
2848;SDS011;59355;52.416;13.412;2023-02-21T16:33:24;16.10;;;6.03;;
2848;SDS011;59355;52.416;13.412;2023-02-21T16:35:50;17.30;;;4.80;;
2848;SDS011;59355;52.416;13.412;2023-02-21T16:38:17;6.00;;;4.17;;
2848;SDS011;59355;52.416;13.412;2023-02-21T16:40:43;11.50;;;3.53;;
2848;SDS011;59355;52.416;13.412;2023-02-21T16:43:15;10.50;;;4.30;;
2848;SDS011;59355;52.416;13.412;2023-02-21T16:45:45;13.93;;;5.00;;
2848;SDS011;59355;52.416;13.412;2023-02-21T16:48:15;13.30;;;3.93;;
2848;SDS011;59355;52.416;13.412;2023-02-21T16:50:48;19.97;;;5.50;;
2848;SDS011;59355;52.416;13.412;2023-02-21T16:53:15;13.33;;;4.90;;
2848;SDS011;59355;52.416;13.412;2023-02-21T16:55:41;14.30;;;4.73;;
2848;SDS011;59355;52.416;13.412;2023-02-21T16:58:17;13.93;;;5.17;;
2848;SDS011;59355;52.416;13.412;2023-02-21T17:00:50;12.00;;;4.30;;
2848;SDS011;59355;52.416;13.412;2023-02-21T17:03:17;11.40;;;4.10;;
2848;SDS011;59355;52.416;13.412;2023-02-21T17:05:42;15.33;;;5.57;;
2848;SDS011;59355;52.416;13.412;2023-02-21T17:08:08;14.83;;;5.17;;
2848;SDS011;59355;52.416;13.412;2023-02-21T17:10:33;11.83;;;6.00;;
2848;SDS011;59355;52.416;13.412;2023-02-21T17:12:59;13.87;;;5.13;;
2848;SDS011;59355;52.416;13.412;2023-02-21T17:15:27;12.33;;;5.37;;
2848;SDS011;59355;52.416;13.412;2023-02-21T17:17:52;15.47;;;5.97;;
2848;SDS011;59355;52.416;13.412;2023-02-21T17:20:17;13.77;;;5.00;;
2848;SDS011;59355;52.416;13.412;2023-02-21T17:22:43;17.63;;;6.73;;